createdAt,value
2023-03-28T00:00:24.240Z,95580.00
2023-03-28T00:01:24.247Z,95578.00
2023-03-28T00:02:24.259Z,95578.00
2023-03-28T00:03:24.344Z,95578.00
2023-03-28T00:04:24.403Z,95572.00
2023-03-28T00:05:24.408Z,95568.00
2023-03-28T00:06:24.444Z,95564.00
2023-03-28T00:07:24.457Z,95562.00
2023-03-28T00:08:24.477Z,95562.00
2023-03-28T00:09:24.492Z,95562.00
2023-03-28T00:10:24.541Z,95564.00
2023-03-28T00:11:24.538Z,95564.00
2023-03-28T00:12:24.568Z,95564.00
2023-03-28T00:13:24.613Z,95560.00
2023-03-28T00:14:24.668Z,95551.00
2023-03-28T00:15:24.657Z,95547.00
2023-03-28T00:16:24.774Z,95545.00
2023-03-28T00:17:24.743Z,95543.00
2023-03-28T00:18:24.762Z,95541.00
2023-03-28T00:19:24.782Z,95543.00
2023-03-28T00:20:24.797Z,95551.00
2023-03-28T00:21:24.842Z,95551.00
2023-03-28T00:22:24.889Z,95556.00
2023-03-28T00:23:24.901Z,95560.00
2023-03-28T00:24:24.934Z,95562.00
2023-03-28T00:25:25.008Z,95568.00
2023-03-28T00:26:25.092Z,95572.00
2023-03-28T00:27:25.011Z,95572.00
2023-03-28T00:28:25.047Z,95570.00
2023-03-28T00:29:25.086Z,95572.00
2023-03-28T00:30:25.136Z,95566.00
2023-03-28T00:31:25.217Z,95566.00
2023-03-28T00:32:25.251Z,95574.00
2023-03-28T00:33:25.224Z,95574.00
2023-03-28T00:34:25.245Z,95576.00
2023-03-28T00:35:25.350Z,95578.00
2023-03-28T00:36:25.336Z,95572.00
2023-03-28T00:37:25.397Z,95570.00
2023-03-28T00:51:25.790Z,95562.00
2023-03-28T00:52:25.846Z,95566.00
2023-03-28T00:53:25.830Z,95574.00
2023-03-28T00:54:25.901Z,95574.00
2023-03-28T00:55:25.897Z,95576.00
2023-03-28T00:56:25.944Z,95574.00
2023-03-28T00:57:25.971Z,95572.00
2023-03-28T00:58:25.996Z,95578.00
2023-03-28T00:59:26.024Z,95578.00
2023-03-28T01:00:26.059Z,95578.00
2023-03-28T01:01:26.125Z,95580.00
2023-03-28T01:02:26.198Z,95580.00
2023-03-28T01:03:26.223Z,95578.00
2023-03-28T01:04:26.203Z,95576.00
2023-03-28T01:05:26.244Z,95576.00
2023-03-28T01:09:26.321Z,95576.00
2023-03-28T01:10:26.395Z,95578.00
2023-03-28T01:11:26.403Z,95572.00
2023-03-28T01:12:26.403Z,95568.00
2023-03-28T01:13:26.438Z,95566.00
2023-03-28T01:14:26.486Z,95564.00
2023-03-28T01:15:26.520Z,95562.00
2023-03-28T01:16:26.566Z,95564.00
2023-03-28T01:17:26.579Z,95572.00
2023-03-28T01:18:26.614Z,95570.00
2023-03-28T01:19:26.680Z,95574.00
2023-03-28T01:20:26.699Z,95574.00
2023-03-28T01:21:26.684Z,95576.00
2023-03-28T01:22:26.769Z,95576.00
2023-03-28T01:23:26.770Z,95574.00
2023-03-28T01:24:26.769Z,95576.00
2023-03-28T01:25:26.830Z,95578.00
2023-03-28T01:26:26.884Z,95578.00
2023-03-28T01:27:26.908Z,95580.00
2023-03-28T01:28:26.921Z,95584.00
2023-03-28T01:29:26.967Z,95584.00
2023-03-28T01:30:27.001Z,95590.00
2023-03-28T01:31:27.114Z,95592.00
2023-03-28T01:32:27.085Z,95596.00
2023-03-28T01:33:27.086Z,95600.00
2023-03-28T01:34:27.133Z,95594.00
2023-03-28T01:35:27.220Z,95594.00
2023-03-28T01:36:35.341Z,95596.00
2023-03-28T01:37:28.190Z,95594.00
2023-03-28T01:38:27.248Z,95594.00
2023-03-28T01:39:27.204Z,95598.00
2023-03-28T01:40:27.226Z,95603.00
2023-03-28T01:41:27.261Z,95601.00
2023-03-28T01:44:27.286Z,95601.00
2023-03-28T01:48:27.349Z,95603.00
2023-03-28T01:49:27.337Z,95603.00
2023-03-28T01:50:27.359Z,95601.00
2023-03-28T01:51:27.383Z,95600.00
2023-03-28T01:52:27.388Z,95603.00
2023-03-28T02:05:27.714Z,95596.00
2023-03-28T02:06:27.757Z,95600.00
2023-03-28T02:07:27.781Z,95601.00
2023-03-28T02:08:27.873Z,95605.00
2023-03-28T02:09:27.855Z,95605.00
2023-03-28T02:10:27.883Z,95605.00
2023-03-28T02:11:27.926Z,95605.00
2023-03-28T02:12:27.926Z,95605.00
2023-03-28T02:13:27.974Z,95603.00
2023-03-28T02:14:28.049Z,95607.00
2023-03-28T02:15:28.077Z,95605.00
2023-03-28T02:16:28.109Z,95600.00
2023-03-28T02:17:28.191Z,95598.00
2023-03-28T02:18:28.186Z,95601.00
2023-03-28T02:19:28.220Z,95607.00
2023-03-28T02:20:28.892Z,95609.00
2023-03-28T02:26:28.496Z,95605.00
2023-03-28T02:27:28.495Z,95607.00
2023-03-28T02:28:28.542Z,95607.00
2023-03-28T02:29:28.608Z,95607.00
2023-03-28T02:30:28.658Z,95605.00
2023-03-28T02:31:28.731Z,95605.00
2023-03-28T02:32:28.734Z,95607.00
2023-03-28T02:33:28.745Z,95607.00
2023-03-28T02:34:28.791Z,95609.00
2023-03-28T02:35:28.885Z,95607.00
2023-03-28T02:36:28.853Z,95607.00
2023-03-28T02:37:28.891Z,95607.00
2023-03-28T02:38:28.940Z,95609.00
2023-03-28T02:39:28.986Z,95607.00
2023-03-28T02:40:29.035Z,95607.00
2023-03-28T02:41:29.043Z,95605.00
2023-03-28T02:42:29.100Z,95609.00
2023-03-28T02:43:29.144Z,95613.00
2023-03-28T02:44:29.173Z,95611.00
2023-03-28T02:45:29.233Z,95609.00
2023-03-28T02:46:29.353Z,95615.00
2023-03-28T02:49:35.082Z,95619.00
2023-03-28T02:50:30.379Z,95621.00
2023-03-28T02:57:29.551Z,95615.00
2023-03-28T03:00:29.573Z,95619.00
2023-03-28T03:01:29.619Z,95621.00
2023-03-28T03:04:29.580Z,95633.00
2023-03-28T03:05:29.590Z,95625.00
2023-03-28T03:06:29.598Z,95629.00
2023-03-28T03:07:29.605Z,95631.00
2023-03-28T03:08:29.649Z,95631.00
2023-03-28T03:09:29.657Z,95629.00
2023-03-28T03:10:29.675Z,95635.00
2023-03-28T03:11:29.721Z,95631.00
2023-03-28T03:12:29.721Z,95627.00
2023-03-28T03:13:29.742Z,95633.00
2023-03-28T03:14:29.758Z,95639.00
2023-03-28T03:15:29.793Z,95631.00
2023-03-28T03:16:29.909Z,95633.00
2023-03-28T03:17:29.889Z,95633.00
2023-03-28T03:24:30.135Z,95637.00
2023-03-28T03:25:30.173Z,95639.00
2023-03-28T03:26:30.208Z,95639.00
2023-03-28T03:27:30.216Z,95637.00
2023-03-28T03:28:30.266Z,95643.00
2023-03-28T03:29:39.027Z,95641.00
2023-03-28T03:30:31.297Z,95641.00
2023-03-28T03:31:30.328Z,95647.00
2023-03-28T03:32:30.360Z,95647.00
2023-03-28T03:33:32.385Z,95647.00
2023-03-28T03:37:30.382Z,95650.00
2023-03-28T03:38:30.411Z,95648.00
2023-03-28T03:39:30.486Z,95645.00
2023-03-28T03:40:30.494Z,95647.00
2023-03-28T03:41:30.522Z,95648.00
2023-03-28T03:42:30.555Z,95650.00
2023-03-28T03:43:30.625Z,95652.00
2023-03-28T03:44:30.619Z,95648.00
2023-03-28T03:45:30.663Z,95648.00
2023-03-28T03:46:30.780Z,95650.00
2023-03-28T03:47:30.867Z,95650.00
2023-03-28T03:48:30.813Z,95652.00
2023-03-28T03:49:30.825Z,95652.00
2023-03-28T03:50:30.862Z,95652.00
2023-03-28T03:51:30.931Z,95662.00
2023-03-28T03:52:30.973Z,95662.00
2023-03-28T03:53:30.993Z,95662.00
2023-03-28T03:54:31.071Z,95662.00
2023-03-28T03:55:31.117Z,95666.00
2023-03-28T03:56:31.129Z,95662.00
2023-03-28T03:57:31.182Z,95652.00
2023-03-28T03:58:31.228Z,95664.00
2023-03-28T03:59:31.283Z,95664.00
2023-03-28T04:00:31.296Z,95662.00
2023-03-28T04:01:31.333Z,95666.00
2023-03-28T04:02:31.511Z,95666.00
2023-03-28T04:03:31.393Z,95668.00
2023-03-28T04:04:31.483Z,95670.00
2023-03-28T04:05:31.479Z,95674.00
2023-03-28T04:07:31.553Z,95676.00
2023-03-28T04:08:31.581Z,95668.00
2023-03-28T04:09:31.632Z,95668.00
2023-03-28T04:10:31.696Z,95664.00
2023-03-28T04:11:31.693Z,95666.00
2023-03-28T04:12:31.696Z,95670.00
2023-03-28T04:13:31.821Z,95674.00
2023-03-28T04:14:31.804Z,95672.00
2023-03-28T04:15:31.862Z,95670.00
2023-03-28T04:16:40.375Z,95668.00
2023-03-28T04:17:32.936Z,95672.00
2023-03-28T04:18:31.919Z,95672.00
2023-03-28T04:19:31.949Z,95672.00
2023-03-28T04:24:31.965Z,95676.00
2023-03-28T04:25:31.990Z,95674.00
2023-03-28T04:26:32.007Z,95674.00
2023-03-28T04:27:32.043Z,95676.00
2023-03-28T04:30:32.055Z,95670.00
2023-03-28T04:31:32.135Z,95672.00
2023-03-28T04:40:32.175Z,95684.00
2023-03-28T04:41:32.337Z,95686.00
2023-03-28T04:42:32.248Z,95684.00
2023-03-28T04:43:32.281Z,95686.00
2023-03-28T04:44:32.508Z,95688.00
2023-03-28T04:45:32.930Z,95692.00
2023-03-28T04:48:32.480Z,95686.00
2023-03-28T04:49:32.569Z,95690.00
2023-03-28T04:50:35.134Z,95690.00
2023-03-28T04:51:32.596Z,95688.00
2023-03-28T04:52:32.589Z,95688.00
2023-03-28T04:53:32.627Z,95692.00
2023-03-28T04:57:32.675Z,95692.00
2023-03-28T05:00:32.664Z,95696.00
2023-03-28T05:01:39.914Z,95696.00
2023-03-28T05:03:32.782Z,95698.00
2023-03-28T05:04:32.731Z,95700.00
2023-03-28T05:05:32.753Z,95700.00
2023-03-28T05:06:32.754Z,95700.00
2023-03-28T05:08:32.762Z,95700.00
2023-03-28T05:09:32.774Z,95701.00
2023-03-28T05:12:32.793Z,95707.00
2023-03-28T05:15:32.811Z,95707.00
2023-03-28T05:16:32.878Z,95711.00
2023-03-28T05:17:32.820Z,95711.00
2023-03-28T05:18:32.807Z,95711.00
2023-03-28T05:19:32.834Z,95713.00
2023-03-28T05:23:32.854Z,95713.00
2023-03-28T05:24:34.560Z,95711.00
2023-03-28T05:25:32.872Z,95717.00
2023-03-28T05:29:32.881Z,95721.00
2023-03-28T05:32:32.915Z,95725.00
2023-03-28T05:33:32.905Z,95725.00
2023-03-28T05:35:32.929Z,95735.00
2023-03-28T05:36:32.924Z,95735.00
2023-03-28T05:37:33.399Z,95731.00
2023-03-28T05:40:32.941Z,95733.00
2023-03-28T05:41:33.421Z,95731.00
2023-03-28T05:43:32.984Z,95743.00
2023-03-28T05:44:33.031Z,95747.00
2023-03-28T05:45:40.094Z,95749.00
2023-03-28T05:46:33.041Z,95753.00
2023-03-28T05:47:33.066Z,95753.00
2023-03-28T05:48:33.051Z,95753.00
2023-03-28T05:49:33.062Z,95749.00
2023-03-28T05:50:33.075Z,95755.00
2023-03-28T05:51:33.086Z,95755.00
2023-03-28T05:52:33.463Z,95756.00
2023-03-28T05:54:33.083Z,95758.00
2023-03-28T05:55:35.076Z,95758.00
2023-03-28T05:56:33.319Z,95758.00
2023-03-28T05:57:33.460Z,95760.00
2023-03-28T06:00:33.457Z,95764.00
2023-03-28T06:01:33.564Z,95766.00
2023-03-28T06:02:33.615Z,95770.00
2023-03-28T06:03:33.639Z,95774.00
2023-03-28T06:04:33.692Z,95778.00
2023-03-28T06:05:33.658Z,95772.00
2023-03-28T06:06:33.701Z,95778.00
2023-03-28T06:07:42.087Z,95782.00
2023-03-28T06:08:34.724Z,95780.00
2023-03-28T06:10:33.677Z,95782.00
2023-03-28T06:14:33.695Z,95790.00
2023-03-28T06:15:33.687Z,95790.00
2023-03-28T06:18:33.724Z,95798.00
2023-03-28T06:19:33.750Z,95798.00
2023-03-28T06:23:33.703Z,95802.00
2023-03-28T06:24:33.706Z,95803.00
2023-03-28T06:25:33.710Z,95803.00
2023-03-28T06:29:33.662Z,95813.00
2023-03-28T06:31:33.757Z,95823.00
2023-03-28T06:32:33.975Z,95819.00
2023-03-28T06:34:33.740Z,95815.00
2023-03-28T06:35:33.802Z,95815.00
2023-03-28T06:36:33.751Z,95811.00
2023-03-28T06:37:33.975Z,95813.00
2023-03-28T06:39:33.824Z,95813.00
2023-03-28T06:40:33.872Z,95819.00
2023-03-28T06:41:33.931Z,95827.00
2023-03-28T06:50:34.298Z,95831.00
2023-03-28T06:51:34.328Z,95831.00
2023-03-28T06:52:34.381Z,95827.00
2023-03-28T06:53:34.415Z,95825.00
2023-03-28T06:54:34.467Z,95825.00
2023-03-28T06:55:34.508Z,95829.00
2023-03-28T06:56:34.538Z,95829.00
2023-03-28T06:57:34.617Z,95837.00
2023-03-28T06:58:34.607Z,95841.00
2023-03-28T06:59:34.637Z,95841.00
2023-03-28T07:00:34.667Z,95845.00
2023-03-28T07:01:34.747Z,95845.00
2023-03-28T07:02:35.043Z,95843.00
2023-03-28T07:03:34.759Z,95847.00
2023-03-28T07:04:34.759Z,95845.00
2023-03-28T07:05:34.798Z,95845.00
2023-03-28T07:06:34.855Z,95845.00
2023-03-28T07:07:34.889Z,95847.00
2023-03-28T07:08:34.940Z,95845.00
2023-03-28T07:09:34.933Z,95845.00
2023-03-28T07:10:34.965Z,95854.00
2023-03-28T07:11:35.062Z,95858.00
2023-03-28T07:12:35.091Z,95860.00
2023-03-28T07:13:35.095Z,95862.00
2023-03-28T07:14:35.144Z,95862.00
2023-03-28T07:15:35.188Z,95866.00
2023-03-28T07:29:35.391Z,95890.00
2023-03-28T07:30:35.388Z,95890.00
2023-03-28T07:31:35.422Z,95892.00
2023-03-28T07:32:47.160Z,95888.00
2023-03-28T07:33:37.709Z,95892.00
2023-03-28T07:35:35.691Z,95894.00
2023-03-28T07:36:35.700Z,95894.00
2023-03-28T07:37:35.976Z,95897.00
2023-03-28T07:39:35.826Z,95901.00
2023-03-28T07:40:35.869Z,95903.00
2023-03-28T07:41:35.956Z,95907.00
2023-03-28T07:42:36.535Z,95901.00
2023-03-28T07:46:36.255Z,95907.00
2023-03-28T07:47:36.317Z,95907.00
2023-03-28T07:48:36.513Z,95919.00
2023-03-28T07:51:36.360Z,95911.00
2023-03-28T07:52:36.371Z,95919.00
2023-03-28T07:57:36.418Z,95923.00
2023-03-28T07:58:36.529Z,95921.00
2023-03-28T07:59:36.508Z,95923.00
2023-03-28T08:00:36.468Z,95921.00
2023-03-28T08:01:36.466Z,95919.00
2023-03-28T08:02:36.563Z,95923.00
2023-03-28T08:03:36.664Z,95925.00
2023-03-28T08:04:36.708Z,95935.00
2023-03-28T08:05:36.960Z,95927.00
2023-03-28T08:08:36.942Z,95927.00
2023-03-28T08:09:37.205Z,95927.00
2023-03-28T08:10:37.015Z,95927.00
2023-03-28T08:11:37.104Z,95927.00
2023-03-28T08:12:37.155Z,95923.00
2023-03-28T08:13:37.212Z,95921.00
2023-03-28T08:14:37.197Z,95921.00
2023-03-28T08:15:37.290Z,95925.00
2023-03-28T08:16:37.274Z,95923.00
2023-03-28T08:17:37.368Z,95927.00
2023-03-28T08:18:37.471Z,95925.00
2023-03-28T08:20:37.544Z,95929.00
2023-03-28T08:21:37.586Z,95927.00
2023-03-28T08:23:37.618Z,95925.00
2023-03-28T08:24:37.705Z,95921.00
2023-03-28T08:25:37.695Z,95927.00
2023-03-28T08:26:37.739Z,95925.00
2023-03-28T08:27:37.790Z,95923.00
2023-03-28T08:28:37.824Z,95927.00
2023-03-28T08:29:37.831Z,95927.00
2023-03-28T08:30:37.869Z,95925.00
2023-03-28T08:31:38.053Z,95929.00
2023-03-28T08:32:38.014Z,95929.00
2023-03-28T08:33:37.976Z,95929.00
2023-03-28T08:34:38.077Z,95929.00
2023-03-28T08:35:38.093Z,95931.00
2023-03-28T08:36:38.102Z,95925.00
2023-03-28T08:37:38.157Z,95935.00
2023-03-28T08:38:38.276Z,95931.00
2023-03-28T08:39:38.312Z,95929.00
2023-03-28T08:40:38.369Z,95929.00
2023-03-28T08:41:38.420Z,95931.00
2023-03-28T08:42:38.476Z,95931.00
2023-03-28T08:43:38.544Z,95931.00
2023-03-28T08:44:38.591Z,95931.00
2023-03-28T08:45:38.630Z,95935.00
2023-03-28T08:46:38.777Z,95931.00
2023-03-28T08:47:38.758Z,95935.00
2023-03-28T08:48:39.020Z,95937.00
2023-03-28T08:55:39.188Z,95937.00
2023-03-28T08:56:41.137Z,95937.00
2023-03-28T09:02:39.672Z,95941.00
2023-03-28T09:03:39.772Z,95937.00
2023-03-28T09:04:39.707Z,95933.00
2023-03-28T09:05:39.778Z,95937.00
2023-03-28T09:06:39.805Z,95935.00
2023-03-28T09:07:39.871Z,95937.00
2023-03-28T09:08:39.914Z,95945.00
2023-03-28T09:09:39.948Z,95945.00
2023-03-28T09:10:40.958Z,95943.00
2023-03-28T09:11:40.072Z,95945.00
2023-03-28T09:12:40.124Z,95941.00
2023-03-28T09:13:40.181Z,95943.00
2023-03-28T09:14:40.152Z,95949.00
2023-03-28T09:15:40.230Z,95951.00
2023-03-28T09:16:40.270Z,95951.00
2023-03-28T09:17:40.333Z,95947.00
2023-03-28T09:18:40.335Z,95945.00
2023-03-28T09:19:47.697Z,95945.00
2023-03-28T09:20:43.090Z,95947.00
2023-03-28T09:21:40.420Z,95945.00
2023-03-28T09:22:40.424Z,95949.00
2023-03-28T09:23:40.443Z,95949.00
2023-03-28T09:24:40.384Z,95945.00
2023-03-28T09:25:40.474Z,95943.00
2023-03-28T09:32:40.409Z,95949.00
2023-03-28T09:35:40.404Z,95949.00
2023-03-28T09:36:48.247Z,95945.00
2023-03-28T09:37:41.355Z,95945.00
2023-03-28T09:42:40.337Z,95941.00
2023-03-28T09:44:52.935Z,95941.00
2023-03-28T09:45:41.316Z,95943.00
2023-03-28T09:49:40.327Z,95945.00
2023-03-28T09:50:40.356Z,95945.00
2023-03-28T09:51:40.377Z,95941.00
2023-03-28T09:53:40.391Z,95945.00
2023-03-28T09:54:40.361Z,95947.00
2023-03-28T09:55:40.362Z,95945.00
2023-03-28T09:59:40.350Z,95945.00
2023-03-28T10:00:40.352Z,95941.00
2023-03-28T10:01:40.481Z,95941.00
2023-03-28T10:02:40.541Z,95937.00
2023-03-28T10:03:40.519Z,95935.00
2023-03-28T10:04:40.655Z,95935.00
2023-03-28T10:05:40.636Z,95933.00
2023-03-28T10:06:40.602Z,95935.00
2023-03-28T10:07:40.695Z,95937.00
2023-03-28T10:08:41.037Z,95933.00
2023-03-28T10:09:40.757Z,95929.00
2023-03-28T10:10:40.801Z,95933.00
2023-03-28T10:11:40.803Z,95931.00
2023-03-28T10:12:40.845Z,95929.00
2023-03-28T10:13:41.127Z,95933.00
2023-03-28T10:15:41.030Z,95931.00
2023-03-28T10:16:40.972Z,95929.00
2023-03-28T10:17:41.043Z,95929.00
2023-03-28T10:18:41.007Z,95927.00
2023-03-28T10:19:41.041Z,95927.00
2023-03-28T10:20:41.071Z,95927.00
2023-03-28T10:21:41.100Z,95927.00
2023-03-28T10:22:41.190Z,95925.00
2023-03-28T10:23:41.541Z,95925.00
2023-03-28T10:29:41.300Z,95911.00
2023-03-28T10:31:41.358Z,95909.00
2023-03-28T10:32:41.453Z,95921.00
2023-03-28T10:33:41.445Z,95923.00
2023-03-28T10:34:41.452Z,95919.00
2023-03-28T10:35:41.577Z,95925.00
2023-03-28T10:36:41.493Z,95927.00
2023-03-28T10:37:41.500Z,95923.00
2023-03-28T10:38:41.591Z,95923.00
2023-03-28T10:39:41.519Z,95919.00
2023-03-28T10:44:41.622Z,95923.00
2023-03-28T10:45:41.664Z,95921.00
2023-03-28T10:46:41.698Z,95921.00
2023-03-28T10:47:41.834Z,95927.00
2023-03-28T10:48:41.734Z,95925.00
2023-03-28T10:49:41.807Z,95925.00
2023-03-28T10:50:42.557Z,95925.00
2023-03-28T10:51:41.879Z,95925.00
2023-03-28T10:52:41.877Z,95927.00
2023-03-28T10:53:41.955Z,95927.00
2023-03-28T10:54:41.996Z,95925.00
2023-03-28T10:55:42.008Z,95921.00
2023-03-28T11:00:42.091Z,95921.00
2023-03-28T11:01:42.098Z,95911.00
2023-03-28T11:05:42.233Z,95905.00
2023-03-28T11:06:42.290Z,95907.00
2023-03-28T11:07:42.315Z,95907.00
2023-03-28T11:08:42.581Z,95905.00
2023-03-28T11:15:42.442Z,95899.00
2023-03-28T11:16:42.548Z,95897.00
2023-03-28T11:17:42.482Z,95897.00
2023-03-28T11:18:42.606Z,95901.00
2023-03-28T11:22:47.709Z,95892.00
2023-03-28T11:25:42.576Z,95892.00
2023-03-28T11:30:42.456Z,95878.00
2023-03-28T11:33:42.510Z,95874.00
2023-03-28T11:34:42.916Z,95870.00
2023-03-28T11:35:42.415Z,95872.00
2023-03-28T11:40:42.326Z,95864.00
2023-03-28T11:41:42.353Z,95864.00
2023-03-28T11:42:42.415Z,95866.00
2023-03-28T11:43:42.434Z,95862.00
2023-03-28T11:44:42.446Z,95862.00
2023-03-28T11:45:51.943Z,95858.00
2023-03-28T11:46:43.848Z,95854.00
2023-03-28T11:47:42.512Z,95858.00
2023-03-28T11:53:42.366Z,95847.00
2023-03-28T11:54:42.436Z,95850.00
2023-03-28T11:55:42.449Z,95849.00
2023-03-28T11:56:42.516Z,95850.00
2023-03-28T11:57:42.460Z,95849.00
2023-03-28T11:58:42.501Z,95847.00
2023-03-28T11:59:42.550Z,95845.00
2023-03-28T12:00:42.717Z,95845.00
2023-03-28T12:01:42.620Z,95841.00
2023-03-28T12:02:42.746Z,95837.00
2023-03-28T12:03:42.785Z,95837.00
2023-03-28T12:04:42.734Z,95837.00
2023-03-28T12:05:42.721Z,95837.00
2023-03-28T12:08:42.799Z,95829.00
2023-03-28T12:09:42.853Z,95827.00
2023-03-28T12:10:42.890Z,95827.00
2023-03-28T12:11:42.899Z,95825.00
2023-03-28T12:12:42.927Z,95829.00
2023-03-28T12:13:46.314Z,95821.00
2023-03-28T12:14:43.945Z,95823.00
2023-03-28T12:15:42.933Z,95823.00
2023-03-28T12:18:42.896Z,95825.00
2023-03-28T12:24:42.830Z,95831.00
2023-03-28T12:25:42.844Z,95821.00
2023-03-28T12:26:42.826Z,95819.00
2023-03-28T12:33:42.867Z,95803.00
2023-03-28T12:34:42.913Z,95798.00
2023-03-28T12:35:42.975Z,95796.00
2023-03-28T12:36:42.944Z,95796.00
2023-03-28T12:37:42.999Z,95794.00
2023-03-28T12:38:43.022Z,95792.00
2023-03-28T12:39:43.074Z,95794.00
2023-03-28T12:40:43.124Z,95792.00
2023-03-28T12:41:43.169Z,95796.00
2023-03-28T12:42:43.176Z,95796.00
2023-03-28T12:43:43.184Z,95798.00
2023-03-28T12:44:43.244Z,95798.00
2023-03-28T12:45:43.325Z,95794.00
2023-03-28T12:46:43.318Z,95794.00
2023-03-28T12:47:43.362Z,95794.00
2023-03-28T12:48:43.384Z,95794.00
2023-03-28T12:49:43.431Z,95798.00
2023-03-28T12:50:43.494Z,95798.00
2023-03-28T12:51:43.548Z,95792.00
2023-03-28T12:52:43.557Z,95790.00
2023-03-28T12:53:43.560Z,95788.00
2023-03-28T12:54:43.621Z,95790.00
2023-03-28T12:55:43.685Z,95786.00
2023-03-28T12:56:43.741Z,95790.00
2023-03-28T12:57:43.826Z,95792.00
2023-03-28T12:58:43.794Z,95790.00
2023-03-28T12:59:43.843Z,95788.00
2023-03-28T13:00:43.868Z,95782.00
2023-03-28T13:01:43.949Z,95786.00
2023-03-28T13:02:43.969Z,95784.00
2023-03-28T13:03:43.934Z,95788.00
2023-03-28T13:04:44.044Z,95788.00
2023-03-28T13:05:44.052Z,95784.00
2023-03-28T13:06:44.071Z,95784.00
2023-03-28T13:07:44.128Z,95786.00
2023-03-28T13:08:44.154Z,95786.00
2023-03-28T13:09:44.186Z,95788.00
2023-03-28T13:10:44.212Z,95788.00
2023-03-28T13:11:44.222Z,95788.00
2023-03-28T13:12:44.308Z,95786.00
2023-03-28T13:13:44.327Z,95786.00
2023-03-28T13:14:44.392Z,95788.00
2023-03-28T13:15:44.480Z,95786.00
2023-03-28T13:16:44.454Z,95786.00
2023-03-28T13:17:44.561Z,95784.00
2023-03-28T13:18:44.537Z,95782.00
2023-03-28T13:19:44.563Z,95778.00
2023-03-28T13:20:44.584Z,95776.00
2023-03-28T13:21:44.645Z,95776.00
2023-03-28T13:22:44.674Z,95774.00
2023-03-28T13:23:44.680Z,95774.00
2023-03-28T13:24:44.710Z,95778.00
2023-03-28T13:25:44.805Z,95772.00
2023-03-28T13:26:44.766Z,95774.00
2023-03-28T13:27:44.782Z,95772.00
2023-03-28T13:28:44.815Z,95772.00
2023-03-28T13:29:44.834Z,95772.00
2023-03-28T13:30:44.846Z,95774.00
2023-03-28T13:31:44.895Z,95768.00
2023-03-28T13:32:44.919Z,95768.00
2023-03-28T13:33:45.036Z,95768.00
2023-03-28T13:34:44.929Z,95762.00
2023-03-28T13:35:44.972Z,95758.00
2023-03-28T13:36:44.936Z,95764.00
2023-03-28T13:37:44.959Z,95760.00
2023-03-28T13:38:44.987Z,95764.00
2023-03-28T13:39:44.999Z,95760.00
2023-03-28T13:40:45.035Z,95758.00
2023-03-28T13:41:45.070Z,95760.00
2023-03-28T13:48:45.313Z,95758.00
2023-03-28T13:49:45.343Z,95756.00
2023-03-28T13:50:45.410Z,95753.00
2023-03-28T13:51:45.426Z,95745.00
2023-03-28T13:52:45.448Z,95749.00
2023-03-28T13:53:48.330Z,95751.00
2023-03-28T13:55:45.478Z,95749.00
2023-03-28T13:57:45.435Z,95745.00
2023-03-28T13:58:45.471Z,95745.00
2023-03-28T14:03:47.128Z,95735.00
2023-03-28T14:04:45.396Z,95735.00
2023-03-28T14:06:45.346Z,95737.00
2023-03-28T14:13:45.265Z,95727.00
2023-03-28T14:16:45.351Z,95725.00
2023-03-28T14:22:53.068Z,95719.00
2023-03-28T14:23:46.288Z,95719.00
2023-03-28T14:30:45.343Z,95719.00
2023-03-28T14:31:45.378Z,95717.00
2023-03-28T14:32:56.461Z,95715.00
2023-03-28T14:33:47.448Z,95711.00
2023-03-28T14:34:45.453Z,95709.00
2023-03-28T14:35:45.612Z,95709.00
2023-03-28T14:36:45.455Z,95705.00
2023-03-28T14:37:45.510Z,95709.00
2023-03-28T14:38:45.498Z,95709.00
2023-03-28T14:39:45.556Z,95709.00
2023-03-28T14:40:45.617Z,95709.00
2023-03-28T14:41:45.635Z,95713.00
2023-03-28T14:42:45.675Z,95711.00
2023-03-28T14:43:45.701Z,95705.00
2023-03-28T14:44:45.717Z,95707.00
2023-03-28T14:45:45.789Z,95707.00
2023-03-28T14:48:45.842Z,95711.00
2023-03-28T14:49:45.914Z,95707.00
2023-03-28T14:50:45.908Z,95707.00
2023-03-28T14:51:45.936Z,95709.00
2023-03-28T14:52:45.917Z,95707.00
2023-03-28T14:53:45.988Z,95711.00
2023-03-28T14:54:45.996Z,95709.00
2023-03-28T14:55:46.012Z,95705.00
2023-03-28T14:56:46.093Z,95705.00
2023-03-28T14:57:46.090Z,95705.00
2023-03-28T15:01:46.196Z,95703.00
2023-03-28T15:03:46.334Z,95703.00
2023-03-28T15:04:46.215Z,95703.00
2023-03-28T15:05:46.264Z,95703.00
2023-03-28T15:06:46.251Z,95703.00
2023-03-28T15:09:14.975Z,95698.00
2023-03-28T15:10:40.271Z,95696.00
2023-03-28T15:11:40.246Z,95698.00
2023-03-28T15:12:40.210Z,95698.00
2023-03-28T15:13:40.188Z,95696.00
2023-03-28T15:14:40.189Z,95698.00
2023-03-28T15:15:40.222Z,95696.00
2023-03-28T15:16:40.129Z,95700.00
2023-03-28T15:17:40.281Z,95700.00
2023-03-28T15:18:41.798Z,95703.00
2023-03-28T15:19:40.068Z,95703.00
2023-03-28T15:20:40.044Z,95700.00
2023-03-28T15:21:40.002Z,95701.00
2023-03-28T15:22:39.957Z,95701.00
2023-03-28T15:23:39.975Z,95701.00
2023-03-28T15:24:39.940Z,95700.00
2023-03-28T15:25:39.871Z,95698.00
2023-03-28T15:26:39.850Z,95696.00
2023-03-28T15:27:39.809Z,95700.00
2023-03-28T15:28:39.801Z,95696.00
2023-03-28T15:29:39.773Z,95696.00
2023-03-28T15:30:39.728Z,95698.00
2023-03-28T15:31:39.730Z,95694.00
2023-03-28T15:32:39.699Z,95696.00
2023-03-28T15:33:39.658Z,95694.00
2023-03-28T15:34:39.597Z,95692.00
2023-03-28T15:35:39.629Z,95696.00
2023-03-28T15:36:39.527Z,95694.00
2023-03-28T15:37:39.489Z,95698.00
2023-03-28T15:38:39.465Z,95694.00
2023-03-28T15:39:39.396Z,95694.00
2023-03-28T15:40:39.395Z,95700.00
2023-03-28T15:41:39.356Z,95696.00
2023-03-28T15:42:39.290Z,95694.00
2023-03-28T15:43:39.280Z,95696.00
2023-03-28T15:44:39.245Z,95692.00
2023-03-28T15:45:39.241Z,95696.00
2023-03-28T15:46:39.217Z,95696.00
2023-03-28T15:47:39.247Z,95696.00
2023-03-28T15:48:39.121Z,95698.00
2023-03-28T15:49:39.120Z,95703.00
2023-03-28T15:50:39.088Z,95701.00
2023-03-28T15:51:39.076Z,95700.00
2023-03-28T15:52:39.039Z,95698.00
2023-03-28T15:53:38.971Z,95698.00
2023-03-28T15:54:38.957Z,95700.00
2023-03-28T15:55:38.973Z,95698.00
2023-03-28T15:56:38.943Z,95698.00
2023-03-28T15:57:38.895Z,95698.00
2023-03-28T15:58:38.857Z,95701.00
2023-03-28T15:59:38.821Z,95701.00
2023-03-28T16:00:38.796Z,95701.00
2023-03-28T16:01:38.804Z,95700.00
2023-03-28T16:02:38.790Z,95701.00
2023-03-28T16:03:38.898Z,95701.00
2023-03-28T16:04:38.768Z,95700.00
2023-03-28T16:05:38.760Z,95703.00
2023-03-28T16:06:38.949Z,95705.00
2023-03-28T16:07:38.756Z,95709.00
2023-03-28T16:08:38.763Z,95711.00
2023-03-28T16:09:38.736Z,95709.00
2023-03-28T16:10:38.809Z,95707.00
2023-03-28T16:11:38.763Z,95707.00
2023-03-28T16:12:39.042Z,95705.00
2023-03-28T16:13:38.807Z,95703.00
2023-03-28T16:14:38.803Z,95705.00
2023-03-28T16:15:38.832Z,95703.00
2023-03-28T16:16:38.894Z,95707.00
2023-03-28T16:17:38.844Z,95709.00
2023-03-28T16:18:38.825Z,95707.00
2023-03-28T16:19:38.877Z,95707.00
2023-03-28T16:20:38.866Z,95707.00
2023-03-28T16:21:38.890Z,95707.00
2023-03-28T16:22:38.870Z,95705.00
2023-03-28T16:23:38.900Z,95705.00
2023-03-28T16:24:38.896Z,95705.00
2023-03-28T16:25:38.913Z,95705.00
2023-03-28T16:26:38.927Z,95703.00
2023-03-28T16:27:38.980Z,95703.00